Palm Springs (PSP/KPSP)

Information

Location
Palm Springs, CA
Local Time
12:41 / 12:41 pm
GMT Time
19:41 / 7:41 pm
Gates
9
No FAA reported delays
METAR KPSP 281853Z 01010G21KT 330V040 10SM CLR 29/M06 A2977 RMK AO2 SLP075 T02941061
TAF KPSP 281746Z 2818/2918 34014KT P6SM SCT250 FM282200 VRB06KT P6SM SKC FM290200 35010KT P6SM SKC FM290700 34015G25KT P6SM SKC